Santa Ana, CA (92701)

1:49 PM PDT on September 01, 2015 (GMT -0700)
MesoWest | | Change Station
CLOSE
Current Station
Personal Weather Station
Location: Santa Ana, CA
Elevation: 109 ft
Nearby Weather Stations

Elev 109 ft 33.74 °N, 117.87 °W | Updated 55 minutes ago

Partly Cloudy
Partly Cloudy
82 °F
Feels Like 84 °F
N
2
Wind Variable Wind from SSE
Gusts 8.0 mph

Today
High -- | Low -- °F
--% Chance of Precip.
Yesterday
High -- | Low -- °F
Precip. -- in
6:25 AM 7:17 PM
Waning Gibbous, 86% visible
Pressure 29.91 in
Visibility 10.0 miles
Clouds Few 18000 ft
Mostly Cloudy 30000 ft
Heat Index 84 °F
Dew Point 64 °F
Humidity 55%
Rainfall in
Snow Depth Not available.
UV 6 out of 12
Pollen 7.20 out of 12
Air Quality Not available.
Flu Activity Not available.
METAR KSNA 011953Z 20007KT 10SM FEW180 BKN300 24/16 A2991 RMK AO2 SLP128 T02390156
Pressure 29.91 in
Visibility 10.0 miles
Clouds Few 18000 ft
Mostly Cloudy 30000 ft
Heat Index 84 °F
Dew Point 64 °F
Humidity 55%
Rainfall in
Snow Depth Not available.
UV 6 out of 12
Pollen 7.20 out of 12
Air Quality Not available.
Flu Activity Not available.
METAR KSNA 011953Z 20007KT 10SM FEW180 BKN300 24/16 A2991 RMK AO2 SLP128 T02390156

10-Day Weather Forecast

×

Almanac

Astronomy

Sep. 01, 2015 Rise Set
Actual Time
Civil Twilight
Nautical Twilight
Astronomical Twilight
Moon
Length of Visible Light
Length of Day
Tomorrow will be .
, % of the Moon is Illuminated

Today's Extremes

State Highs State Lows

Community

WunderPhotos

Upload Photos

1,851,608 photos uploaded!

WunderBlogs® & News

Nearby

Air Quality

  Air Quality AQ Index Pollutant
Not available.

Snow Depth

Station Depth Elevation

Earthquake Activity

City Distance Mag. Time & Date
Minimum magnitude displayed is 2.5.

Coastal Water Temperatures

Place Temperature

Stations

Nearby Weather Stations

Station Location Temp. Windchill Dew Point Humidity Wind Precip. Elev Updated Type